sensor_id;sensor_type;location;lat;lon;timestamp;P1;durP1;ratioP1;P2;durP2;ratioP2
10811;SDS011;5458;51.496;7.334;2023-02-13T00:01:51;29.75;;;18.65;;
10811;SDS011;5458;51.496;7.334;2023-02-13T00:04:17;24.90;;;18.67;;
10811;SDS011;5458;51.496;7.334;2023-02-13T00:06:42;29.33;;;19.25;;
10811;SDS011;5458;51.496;7.334;2023-02-13T00:09:08;27.73;;;19.15;;
10811;SDS011;5458;51.496;7.334;2023-02-13T00:11:35;24.33;;;17.95;;
10811;SDS011;5458;51.496;7.334;2023-02-13T00:14:01;26.00;;;19.63;;
10811;SDS011;5458;51.496;7.334;2023-02-13T00:16:27;23.23;;;18.70;;
10811;SDS011;5458;51.496;7.334;2023-02-13T00:18:52;28.05;;;19.05;;
10811;SDS011;5458;51.496;7.334;2023-02-13T00:21:18;25.35;;;18.00;;
10811;SDS011;5458;51.496;7.334;2023-02-13T00:23:44;25.67;;;18.83;;
10811;SDS011;5458;51.496;7.334;2023-02-13T00:26:10;24.95;;;19.08;;
10811;SDS011;5458;51.496;7.334;2023-02-13T00:28:38;27.52;;;18.45;;
10811;SDS011;5458;51.496;7.334;2023-02-13T00:31:12;24.38;;;19.30;;
10811;SDS011;5458;51.496;7.334;2023-02-13T00:33:39;24.55;;;18.52;;
10811;SDS011;5458;51.496;7.334;2023-02-13T00:36:09;27.40;;;18.63;;
10811;SDS011;5458;51.496;7.334;2023-02-13T00:38:37;29.98;;;19.50;;
10811;SDS011;5458;51.496;7.334;2023-02-13T00:41:04;23.98;;;18.95;;
10811;SDS011;5458;51.496;7.334;2023-02-13T00:43:30;28.65;;;19.85;;
10811;SDS011;5458;51.496;7.334;2023-02-13T00:45:56;25.17;;;19.70;;
10811;SDS011;5458;51.496;7.334;2023-02-13T00:48:26;25.55;;;18.88;;
10811;SDS011;5458;51.496;7.334;2023-02-13T00:50:53;25.60;;;18.75;;
10811;SDS011;5458;51.496;7.334;2023-02-13T00:53:19;26.65;;;19.25;;
10811;SDS011;5458;51.496;7.334;2023-02-13T00:55:46;28.25;;;19.30;;
10811;SDS011;5458;51.496;7.334;2023-02-13T00:58:12;24.70;;;19.88;;
10811;SDS011;5458;51.496;7.334;2023-02-13T01:00:38;19.90;;;16.23;;
10811;SDS011;5458;51.496;7.334;2023-02-13T01:03:05;22.63;;;17.45;;
10811;SDS011;5458;51.496;7.334;2023-02-13T01:05:31;20.83;;;16.60;;
10811;SDS011;5458;51.496;7.334;2023-02-13T01:07:57;27.15;;;18.17;;
10811;SDS011;5458;51.496;7.334;2023-02-13T01:10:23;27.63;;;19.77;;
10811;SDS011;5458;51.496;7.334;2023-02-13T01:12:49;25.85;;;18.00;;
10811;SDS011;5458;51.496;7.334;2023-02-13T01:15:16;25.27;;;18.00;;
10811;SDS011;5458;51.496;7.334;2023-02-13T01:17:42;23.58;;;16.92;;
10811;SDS011;5458;51.496;7.334;2023-02-13T01:20:08;20.48;;;16.05;;
10811;SDS011;5458;51.496;7.334;2023-02-13T01:22:35;18.02;;;14.70;;
10811;SDS011;5458;51.496;7.334;2023-02-13T01:25:01;25.63;;;17.88;;
10811;SDS011;5458;51.496;7.334;2023-02-13T01:27:27;19.85;;;14.88;;
10811;SDS011;5458;51.496;7.334;2023-02-13T01:29:53;18.40;;;14.75;;
10811;SDS011;5458;51.496;7.334;2023-02-13T01:32:19;22.63;;;15.55;;
10811;SDS011;5458;51.496;7.334;2023-02-13T01:34:45;20.92;;;16.58;;
10811;SDS011;5458;51.496;7.334;2023-02-13T01:37:11;19.05;;;15.25;;
10811;SDS011;5458;51.496;7.334;2023-02-13T01:39:38;18.75;;;13.35;;
10811;SDS011;5458;51.496;7.334;2023-02-13T01:42:04;16.20;;;12.77;;
10811;SDS011;5458;51.496;7.334;2023-02-13T01:44:47;18.25;;;13.65;;
10811;SDS011;5458;51.496;7.334;2023-02-13T01:47:48;16.98;;;13.40;;
10811;SDS011;5458;51.496;7.334;2023-02-13T01:52:56;14.90;;;10.80;;
10811;SDS011;5458;51.496;7.334;2023-02-13T01:55:26;16.05;;;12.85;;
10811;SDS011;5458;51.496;7.334;2023-02-13T01:57:54;16.20;;;12.70;;
10811;SDS011;5458;51.496;7.334;2023-02-13T02:00:32;16.02;;;12.13;;
10811;SDS011;5458;51.496;7.334;2023-02-13T02:03:01;19.08;;;13.35;;
10811;SDS011;5458;51.496;7.334;2023-02-13T02:05:35;14.25;;;10.40;;
10811;SDS011;5458;51.496;7.334;2023-02-13T02:08:01;13.38;;;10.70;;
10811;SDS011;5458;51.496;7.334;2023-02-13T02:10:32;12.07;;;10.48;;
10811;SDS011;5458;51.496;7.334;2023-02-13T02:13:19;13.40;;;10.27;;
10811;SDS011;5458;51.496;7.334;2023-02-13T02:15:45;13.05;;;10.07;;
10811;SDS011;5458;51.496;7.334;2023-02-13T02:18:22;13.45;;;10.93;;
10811;SDS011;5458;51.496;7.334;2023-02-13T02:40:17;11.23;;;8.40;;
10811;SDS011;5458;51.496;7.334;2023-02-13T02:47:54;10.00;;;6.95;;
10811;SDS011;5458;51.496;7.334;2023-02-13T02:50:52;7.93;;;7.13;;
10811;SDS011;5458;51.496;7.334;2023-02-13T02:56:03;8.60;;;7.22;;
10811;SDS011;5458;51.496;7.334;2023-02-13T03:01:24;8.32;;;6.60;;
10811;SDS011;5458;51.496;7.334;2023-02-13T03:04:45;9.40;;;6.90;;
10811;SDS011;5458;51.496;7.334;2023-02-13T03:07:26;6.68;;;5.93;;
10811;SDS011;5458;51.496;7.334;2023-02-13T03:09:55;8.18;;;6.03;;
10811;SDS011;5458;51.496;7.334;2023-02-13T03:12:53;8.68;;;6.03;;
10811;SDS011;5458;51.496;7.334;2023-02-13T03:16:00;8.40;;;6.18;;
10811;SDS011;5458;51.496;7.334;2023-02-13T03:18:46;7.30;;;6.07;;
10811;SDS011;5458;51.496;7.334;2023-02-13T03:21:44;7.78;;;6.22;;
10811;SDS011;5458;51.496;7.334;2023-02-13T03:38:56;6.20;;;5.60;;
10811;SDS011;5458;51.496;7.334;2023-02-13T03:41:43;6.03;;;5.35;;
10811;SDS011;5458;51.496;7.334;2023-02-13T03:44:27;6.55;;;5.90;;
10811;SDS011;5458;51.496;7.334;2023-02-13T03:46:56;7.07;;;5.80;;
10811;SDS011;5458;51.496;7.334;2023-02-13T03:49:35;5.75;;;5.15;;
10811;SDS011;5458;51.496;7.334;2023-02-13T03:58:01;5.00;;;4.50;;
10811;SDS011;5458;51.496;7.334;2023-02-13T04:00:51;4.57;;;4.10;;
10811;SDS011;5458;51.496;7.334;2023-02-13T04:03:27;4.97;;;4.57;;
10811;SDS011;5458;51.496;7.334;2023-02-13T04:06:08;5.13;;;4.32;;
10811;SDS011;5458;51.496;7.334;2023-02-13T04:08:37;5.38;;;4.20;;
10811;SDS011;5458;51.496;7.334;2023-02-13T04:16:22;4.93;;;4.38;;
10811;SDS011;5458;51.496;7.334;2023-02-13T04:19:06;5.85;;;4.53;;
10811;SDS011;5458;51.496;7.334;2023-02-13T04:21:34;9.48;;;4.80;;
10811;SDS011;5458;51.496;7.334;2023-02-13T04:24:02;5.28;;;4.45;;
10811;SDS011;5458;51.496;7.334;2023-02-13T04:26:32;6.22;;;5.30;;
10811;SDS011;5458;51.496;7.334;2023-02-13T04:29:03;5.28;;;4.78;;
10811;SDS011;5458;51.496;7.334;2023-02-13T04:31:29;6.32;;;5.13;;
10811;SDS011;5458;51.496;7.334;2023-02-13T04:33:55;5.72;;;4.47;;
10811;SDS011;5458;51.496;7.334;2023-02-13T04:36:21;5.47;;;4.75;;
10811;SDS011;5458;51.496;7.334;2023-02-13T04:38:47;5.82;;;4.63;;
10811;SDS011;5458;51.496;7.334;2023-02-13T04:41:12;6.32;;;4.82;;
10811;SDS011;5458;51.496;7.334;2023-02-13T04:43:38;5.55;;;4.53;;
10811;SDS011;5458;51.496;7.334;2023-02-13T04:46:04;5.28;;;4.78;;
10811;SDS011;5458;51.496;7.334;2023-02-13T04:48:30;6.72;;;5.72;;
10811;SDS011;5458;51.496;7.334;2023-02-13T04:50:55;6.88;;;5.25;;
10811;SDS011;5458;51.496;7.334;2023-02-13T04:53:24;6.35;;;4.82;;
10811;SDS011;5458;51.496;7.334;2023-02-13T04:55:50;7.15;;;5.05;;
10811;SDS011;5458;51.496;7.334;2023-02-13T04:58:16;6.15;;;5.57;;
10811;SDS011;5458;51.496;7.334;2023-02-13T05:00:42;6.75;;;5.20;;
10811;SDS011;5458;51.496;7.334;2023-02-13T05:03:09;6.28;;;5.00;;
10811;SDS011;5458;51.496;7.334;2023-02-13T05:05:36;6.65;;;5.65;;
10811;SDS011;5458;51.496;7.334;2023-02-13T05:08:03;6.30;;;5.10;;
10811;SDS011;5458;51.496;7.334;2023-02-13T05:10:29;7.68;;;5.68;;
10811;SDS011;5458;51.496;7.334;2023-02-13T05:12:55;6.45;;;5.20;;
10811;SDS011;5458;51.496;7.334;2023-02-13T05:15:21;5.63;;;4.80;;
10811;SDS011;5458;51.496;7.334;2023-02-13T05:17:47;6.43;;;5.30;;
10811;SDS011;5458;51.496;7.334;2023-02-13T05:20:13;6.65;;;5.15;;
10811;SDS011;5458;51.496;7.334;2023-02-13T05:22:46;7.10;;;5.53;;
10811;SDS011;5458;51.496;7.334;2023-02-13T05:25:32;7.75;;;6.38;;
10811;SDS011;5458;51.496;7.334;2023-02-13T05:27:58;9.02;;;6.75;;
10811;SDS011;5458;51.496;7.334;2023-02-13T05:30:24;8.20;;;5.75;;
10811;SDS011;5458;51.496;7.334;2023-02-13T05:32:50;6.40;;;5.80;;
10811;SDS011;5458;51.496;7.334;2023-02-13T05:35:25;6.93;;;5.43;;
10811;SDS011;5458;51.496;7.334;2023-02-13T05:37:50;7.25;;;6.13;;
10811;SDS011;5458;51.496;7.334;2023-02-13T05:40:16;8.77;;;5.70;;
10811;SDS011;5458;51.496;7.334;2023-02-13T05:42:42;7.15;;;5.60;;
10811;SDS011;5458;51.496;7.334;2023-02-13T05:45:08;8.95;;;6.68;;
10811;SDS011;5458;51.496;7.334;2023-02-13T05:47:34;7.03;;;6.15;;
10811;SDS011;5458;51.496;7.334;2023-02-13T05:50:00;7.80;;;6.00;;
10811;SDS011;5458;51.496;7.334;2023-02-13T05:52:26;7.18;;;6.07;;
10811;SDS011;5458;51.496;7.334;2023-02-13T05:54:52;8.07;;;7.18;;
10811;SDS011;5458;51.496;7.334;2023-02-13T05:57:17;9.10;;;6.57;;
10811;SDS011;5458;51.496;7.334;2023-02-13T05:59:43;8.82;;;7.82;;
10811;SDS011;5458;51.496;7.334;2023-02-13T06:02:09;8.05;;;6.00;;
10811;SDS011;5458;51.496;7.334;2023-02-13T06:04:35;7.93;;;6.20;;
10811;SDS011;5458;51.496;7.334;2023-02-13T06:07:01;9.15;;;6.88;;
10811;SDS011;5458;51.496;7.334;2023-02-13T06:09:27;7.45;;;6.35;;
10811;SDS011;5458;51.496;7.334;2023-02-13T06:11:52;7.35;;;5.95;;
10811;SDS011;5458;51.496;7.334;2023-02-13T06:14:18;8.57;;;6.15;;
10811;SDS011;5458;51.496;7.334;2023-02-13T06:16:44;8.23;;;6.72;;
10811;SDS011;5458;51.496;7.334;2023-02-13T06:19:10;9.00;;;6.30;;
10811;SDS011;5458;51.496;7.334;2023-02-13T06:21:35;9.98;;;7.13;;
10811;SDS011;5458;51.496;7.334;2023-02-13T06:24:06;7.53;;;6.40;;
10811;SDS011;5458;51.496;7.334;2023-02-13T06:26:33;9.00;;;7.15;;
10811;SDS011;5458;51.496;7.334;2023-02-13T06:28:58;8.88;;;6.63;;
10811;SDS011;5458;51.496;7.334;2023-02-13T06:31:25;9.18;;;7.05;;
10811;SDS011;5458;51.496;7.334;2023-02-13T06:33:51;11.20;;;7.43;;
10811;SDS011;5458;51.496;7.334;2023-02-13T06:36:17;9.05;;;7.20;;
10811;SDS011;5458;51.496;7.334;2023-02-13T06:38:42;11.68;;;6.47;;
10811;SDS011;5458;51.496;7.334;2023-02-13T06:41:08;9.52;;;6.68;;
10811;SDS011;5458;51.496;7.334;2023-02-13T06:43:34;8.82;;;6.85;;
10811;SDS011;5458;51.496;7.334;2023-02-13T06:46:03;14.13;;;7.55;;
10811;SDS011;5458;51.496;7.334;2023-02-13T06:48:32;9.63;;;7.15;;
10811;SDS011;5458;51.496;7.334;2023-02-13T06:50:58;10.30;;;7.28;;
10811;SDS011;5458;51.496;7.334;2023-02-13T06:53:26;10.10;;;7.25;;
10811;SDS011;5458;51.496;7.334;2023-02-13T06:55:52;11.02;;;7.80;;
10811;SDS011;5458;51.496;7.334;2023-02-13T06:58:19;10.13;;;7.70;;
10811;SDS011;5458;51.496;7.334;2023-02-13T07:00:45;10.90;;;7.57;;
10811;SDS011;5458;51.496;7.334;2023-02-13T07:03:11;10.80;;;7.25;;
10811;SDS011;5458;51.496;7.334;2023-02-13T07:05:40;9.95;;;7.72;;
10811;SDS011;5458;51.496;7.334;2023-02-13T07:08:08;7.70;;;6.90;;
10811;SDS011;5458;51.496;7.334;2023-02-13T07:10:38;9.18;;;7.38;;
10811;SDS011;5458;51.496;7.334;2023-02-13T07:13:06;10.20;;;7.40;;
10811;SDS011;5458;51.496;7.334;2023-02-13T07:15:32;10.73;;;7.32;;
10811;SDS011;5458;51.496;7.334;2023-02-13T07:17:59;8.48;;;6.85;;
10811;SDS011;5458;51.496;7.334;2023-02-13T07:20:25;8.40;;;7.10;;
10811;SDS011;5458;51.496;7.334;2023-02-13T07:22:52;11.57;;;7.10;;
10811;SDS011;5458;51.496;7.334;2023-02-13T07:25:21;11.25;;;7.70;;
10811;SDS011;5458;51.496;7.334;2023-02-13T07:27:47;11.10;;;7.60;;
10811;SDS011;5458;51.496;7.334;2023-02-13T07:30:12;9.20;;;7.47;;
10811;SDS011;5458;51.496;7.334;2023-02-13T07:32:38;11.48;;;7.28;;
10811;SDS011;5458;51.496;7.334;2023-02-13T07:35:04;10.73;;;8.18;;
10811;SDS011;5458;51.496;7.334;2023-02-13T07:37:30;12.60;;;8.52;;
10811;SDS011;5458;51.496;7.334;2023-02-13T07:39:56;11.27;;;8.93;;
10811;SDS011;5458;51.496;7.334;2023-02-13T07:42:22;12.57;;;7.72;;
10811;SDS011;5458;51.496;7.334;2023-02-13T07:44:48;11.68;;;7.80;;
10811;SDS011;5458;51.496;7.334;2023-02-13T07:47:13;12.55;;;8.77;;
10811;SDS011;5458;51.496;7.334;2023-02-13T07:49:39;13.38;;;9.20;;
10811;SDS011;5458;51.496;7.334;2023-02-13T07:52:05;15.32;;;9.80;;
10811;SDS011;5458;51.496;7.334;2023-02-13T07:54:30;12.20;;;9.00;;
10811;SDS011;5458;51.496;7.334;2023-02-13T07:56:56;12.40;;;9.45;;
10811;SDS011;5458;51.496;7.334;2023-02-13T07:59:23;12.55;;;9.35;;
10811;SDS011;5458;51.496;7.334;2023-02-13T08:01:48;11.43;;;9.50;;
10811;SDS011;5458;51.496;7.334;2023-02-13T08:04:14;11.98;;;9.02;;
10811;SDS011;5458;51.496;7.334;2023-02-13T08:06:40;11.18;;;8.63;;
10811;SDS011;5458;51.496;7.334;2023-02-13T08:09:06;11.90;;;8.63;;
10811;SDS011;5458;51.496;7.334;2023-02-13T08:11:56;16.50;;;8.82;;
10811;SDS011;5458;51.496;7.334;2023-02-13T08:14:23;14.90;;;8.52;;
10811;SDS011;5458;51.496;7.334;2023-02-13T08:16:50;11.75;;;8.52;;
10811;SDS011;5458;51.496;7.334;2023-02-13T08:19:17;12.05;;;7.85;;
10811;SDS011;5458;51.496;7.334;2023-02-13T08:21:43;10.68;;;8.05;;
10811;SDS011;5458;51.496;7.334;2023-02-13T08:24:09;8.73;;;7.82;;
10811;SDS011;5458;51.496;7.334;2023-02-13T08:26:35;9.98;;;7.38;;
10811;SDS011;5458;51.496;7.334;2023-02-13T08:29:02;8.88;;;7.15;;
10811;SDS011;5458;51.496;7.334;2023-02-13T08:31:28;9.80;;;6.97;;
10811;SDS011;5458;51.496;7.334;2023-02-13T08:33:55;8.52;;;6.78;;
10811;SDS011;5458;51.496;7.334;2023-02-13T08:36:21;8.73;;;6.32;;
10811;SDS011;5458;51.496;7.334;2023-02-13T08:38:47;8.10;;;6.53;;
10811;SDS011;5458;51.496;7.334;2023-02-13T08:41:13;7.82;;;5.90;;
10811;SDS011;5458;51.496;7.334;2023-02-13T08:43:41;7.60;;;6.30;;
10811;SDS011;5458;51.496;7.334;2023-02-13T08:46:07;9.07;;;7.40;;
10811;SDS011;5458;51.496;7.334;2023-02-13T08:48:33;8.73;;;6.10;;
10811;SDS011;5458;51.496;7.334;2023-02-13T08:50:58;8.32;;;6.50;;
10811;SDS011;5458;51.496;7.334;2023-02-13T08:53:24;7.40;;;5.95;;
10811;SDS011;5458;51.496;7.334;2023-02-13T08:55:53;8.52;;;6.32;;
10811;SDS011;5458;51.496;7.334;2023-02-13T08:58:20;8.13;;;6.93;;
10811;SDS011;5458;51.496;7.334;2023-02-13T09:00:46;9.43;;;6.10;;
10811;SDS011;5458;51.496;7.334;2023-02-13T09:03:11;6.95;;;5.97;;
10811;SDS011;5458;51.496;7.334;2023-02-13T09:05:37;10.15;;;6.60;;
10811;SDS011;5458;51.496;7.334;2023-02-13T09:08:03;8.48;;;6.53;;
10811;SDS011;5458;51.496;7.334;2023-02-13T09:10:29;10.73;;;6.78;;
10811;SDS011;5458;51.496;7.334;2023-02-13T09:12:56;7.18;;;6.47;;
10811;SDS011;5458;51.496;7.334;2023-02-13T09:15:21;6.72;;;5.82;;
10811;SDS011;5458;51.496;7.334;2023-02-13T09:17:47;6.43;;;5.80;;
10811;SDS011;5458;51.496;7.334;2023-02-13T09:20:13;7.05;;;5.75;;
10811;SDS011;5458;51.496;7.334;2023-02-13T09:22:39;10.35;;;6.93;;
10811;SDS011;5458;51.496;7.334;2023-02-13T09:25:05;7.93;;;7.05;;
10811;SDS011;5458;51.496;7.334;2023-02-13T09:27:31;7.07;;;6.07;;
10811;SDS011;5458;51.496;7.334;2023-02-13T09:29:58;6.75;;;6.05;;
10811;SDS011;5458;51.496;7.334;2023-02-13T09:32:25;6.57;;;5.97;;
10811;SDS011;5458;51.496;7.334;2023-02-13T09:34:50;7.55;;;6.43;;
10811;SDS011;5458;51.496;7.334;2023-02-13T09:37:16;7.32;;;6.63;;
10811;SDS011;5458;51.496;7.334;2023-02-13T09:39:42;6.00;;;5.40;;
10811;SDS011;5458;51.496;7.334;2023-02-13T09:42:16;8.95;;;6.50;;
10811;SDS011;5458;51.496;7.334;2023-02-13T09:44:48;8.10;;;6.32;;
10811;SDS011;5458;51.496;7.334;2023-02-13T09:49:50;7.65;;;6.00;;
10811;SDS011;5458;51.496;7.334;2023-02-13T09:52:19;7.20;;;6.05;;
10811;SDS011;5458;51.496;7.334;2023-02-13T09:54:45;7.97;;;6.60;;
10811;SDS011;5458;51.496;7.334;2023-02-13T09:57:31;6.43;;;5.82;;
10811;SDS011;5458;51.496;7.334;2023-02-13T10:02:42;8.00;;;6.50;;
10811;SDS011;5458;51.496;7.334;2023-02-13T10:16:48;7.38;;;6.25;;
10811;SDS011;5458;51.496;7.334;2023-02-13T10:19:30;9.38;;;6.22;;
10811;SDS011;5458;51.496;7.334;2023-02-13T10:21:58;6.68;;;6.00;;
10811;SDS011;5458;51.496;7.334;2023-02-13T10:27:31;6.88;;;6.15;;
10811;SDS011;5458;51.496;7.334;2023-02-13T10:30:07;8.27;;;6.75;;
10811;SDS011;5458;51.496;7.334;2023-02-13T10:33:09;8.18;;;6.20;;
10811;SDS011;5458;51.496;7.334;2023-02-13T10:38:34;8.38;;;6.10;;
10811;SDS011;5458;51.496;7.334;2023-02-13T11:03:22;8.40;;;6.78;;
10811;SDS011;5458;51.496;7.334;2023-02-13T11:05:50;9.52;;;7.03;;
10811;SDS011;5458;51.496;7.334;2023-02-13T11:08:22;7.35;;;6.53;;
10811;SDS011;5458;51.496;7.334;2023-02-13T11:10:58;9.02;;;6.65;;
10811;SDS011;5458;51.496;7.334;2023-02-13T11:13:25;8.90;;;6.63;;
10811;SDS011;5458;51.496;7.334;2023-02-13T11:18:22;8.75;;;7.28;;
10811;SDS011;5458;51.496;7.334;2023-02-13T11:20:57;8.68;;;7.75;;
10811;SDS011;5458;51.496;7.334;2023-02-13T11:23:44;10.38;;;7.18;;
10811;SDS011;5458;51.496;7.334;2023-02-13T11:26:21;10.18;;;6.88;;
10811;SDS011;5458;51.496;7.334;2023-02-13T11:28:55;7.72;;;6.30;;
10811;SDS011;5458;51.496;7.334;2023-02-13T11:31:24;8.20;;;6.50;;
10811;SDS011;5458;51.496;7.334;2023-02-13T11:33:53;8.40;;;7.18;;
10811;SDS011;5458;51.496;7.334;2023-02-13T11:36:24;9.27;;;6.85;;
10811;SDS011;5458;51.496;7.334;2023-02-13T11:39:02;9.52;;;6.80;;
10811;SDS011;5458;51.496;7.334;2023-02-13T11:41:30;10.07;;;6.90;;
10811;SDS011;5458;51.496;7.334;2023-02-13T11:44:04;11.02;;;7.55;;
10811;SDS011;5458;51.496;7.334;2023-02-13T11:46:49;13.65;;;8.10;;
10811;SDS011;5458;51.496;7.334;2023-02-13T11:49:24;12.00;;;7.65;;
10811;SDS011;5458;51.496;7.334;2023-02-13T11:51:57;8.15;;;6.75;;
10811;SDS011;5458;51.496;7.334;2023-02-13T11:54:32;9.07;;;7.60;;
10811;SDS011;5458;51.496;7.334;2023-02-13T11:59:47;8.45;;;6.70;;
10811;SDS011;5458;51.496;7.334;2023-02-13T12:02:19;9.35;;;6.55;;
10811;SDS011;5458;51.496;7.334;2023-02-13T12:04:49;9.70;;;7.82;;
10811;SDS011;5458;51.496;7.334;2023-02-13T12:07:36;10.35;;;6.95;;
10811;SDS011;5458;51.496;7.334;2023-02-13T12:10:07;10.45;;;7.65;;
10811;SDS011;5458;51.496;7.334;2023-02-13T12:12:44;10.43;;;7.25;;
10811;SDS011;5458;51.496;7.334;2023-02-13T12:15:27;7.72;;;6.45;;
10811;SDS011;5458;51.496;7.334;2023-02-13T12:18:01;9.90;;;7.40;;
10811;SDS011;5458;51.496;7.334;2023-02-13T12:23:28;10.05;;;7.05;;
10811;SDS011;5458;51.496;7.334;2023-02-13T12:26:22;10.25;;;6.18;;
10811;SDS011;5458;51.496;7.334;2023-02-13T12:31:38;7.63;;;6.53;;
10811;SDS011;5458;51.496;7.334;2023-02-13T12:37:15;8.18;;;5.97;;
10811;SDS011;5458;51.496;7.334;2023-02-13T12:40:13;8.93;;;6.20;;
10811;SDS011;5458;51.496;7.334;2023-02-13T12:45:52;8.18;;;6.30;;
10811;SDS011;5458;51.496;7.334;2023-02-13T12:53:54;8.13;;;6.60;;
10811;SDS011;5458;51.496;7.334;2023-02-13T12:59:13;9.63;;;5.93;;
10811;SDS011;5458;51.496;7.334;2023-02-13T13:12:53;7.05;;;5.60;;
10811;SDS011;5458;51.496;7.334;2023-02-13T13:18:31;8.75;;;5.53;;
10811;SDS011;5458;51.496;7.334;2023-02-13T13:21:16;12.40;;;5.93;;
10811;SDS011;5458;51.496;7.334;2023-02-13T13:23:53;6.75;;;6.05;;
10811;SDS011;5458;51.496;7.334;2023-02-13T13:26:50;6.28;;;5.47;;
10811;SDS011;5458;51.496;7.334;2023-02-13T13:29:20;6.75;;;5.57;;
10811;SDS011;5458;51.496;7.334;2023-02-13T13:31:53;7.47;;;5.45;;
10811;SDS011;5458;51.496;7.334;2023-02-13T13:34:24;5.95;;;5.35;;
10811;SDS011;5458;51.496;7.334;2023-02-13T13:39:31;7.80;;;5.78;;
10811;SDS011;5458;51.496;7.334;2023-02-13T13:42:07;7.15;;;5.20;;
10811;SDS011;5458;51.496;7.334;2023-02-13T13:44:49;8.38;;;5.43;;
10811;SDS011;5458;51.496;7.334;2023-02-13T13:50:21;7.65;;;5.30;;
10811;SDS011;5458;51.496;7.334;2023-02-13T13:58:23;8.27;;;5.15;;
10811;SDS011;5458;51.496;7.334;2023-02-13T14:03:42;9.60;;;5.45;;
10811;SDS011;5458;51.496;7.334;2023-02-13T14:06:10;8.93;;;6.00;;
10811;SDS011;5458;51.496;7.334;2023-02-13T14:08:57;8.60;;;5.75;;
10811;SDS011;5458;51.496;7.334;2023-02-13T14:13:56;8.15;;;5.50;;
10811;SDS011;5458;51.496;7.334;2023-02-13T14:16:36;6.25;;;5.65;;
10811;SDS011;5458;51.496;7.334;2023-02-13T14:19:04;7.68;;;5.55;;
10811;SDS011;5458;51.496;7.334;2023-02-13T14:21:46;8.52;;;6.15;;
10811;SDS011;5458;51.496;7.334;2023-02-13T14:24:12;9.65;;;5.88;;
10811;SDS011;5458;51.496;7.334;2023-02-13T14:26:38;8.88;;;6.18;;
10811;SDS011;5458;51.496;7.334;2023-02-13T14:34:33;8.38;;;6.20;;
10811;SDS011;5458;51.496;7.334;2023-02-13T14:40:10;9.95;;;6.43;;
10811;SDS011;5458;51.496;7.334;2023-02-13T14:42:43;7.82;;;6.07;;
10811;SDS011;5458;51.496;7.334;2023-02-13T14:45:15;7.05;;;5.53;;
10811;SDS011;5458;51.496;7.334;2023-02-13T14:47:48;9.60;;;6.15;;
10811;SDS011;5458;51.496;7.334;2023-02-13T14:52:49;9.43;;;6.57;;
10811;SDS011;5458;51.496;7.334;2023-02-13T14:55:35;8.75;;;5.72;;
10811;SDS011;5458;51.496;7.334;2023-02-13T15:00:45;8.60;;;6.75;;
10811;SDS011;5458;51.496;7.334;2023-02-13T15:05:53;9.57;;;7.13;;
10811;SDS011;5458;51.496;7.334;2023-02-13T15:08:31;7.53;;;6.70;;
10811;SDS011;5458;51.496;7.334;2023-02-13T15:11:00;10.68;;;6.32;;
10811;SDS011;5458;51.496;7.334;2023-02-13T15:13:33;10.70;;;6.90;;
10811;SDS011;5458;51.496;7.334;2023-02-13T15:16:05;8.35;;;6.75;;
10811;SDS011;5458;51.496;7.334;2023-02-13T15:18:40;7.90;;;6.30;;
10811;SDS011;5458;51.496;7.334;2023-02-13T15:21:13;9.32;;;7.20;;
10811;SDS011;5458;51.496;7.334;2023-02-13T15:23:40;8.85;;;6.72;;
10811;SDS011;5458;51.496;7.334;2023-02-13T15:26:06;10.75;;;6.68;;
10811;SDS011;5458;51.496;7.334;2023-02-13T15:28:33;9.50;;;6.10;;
10811;SDS011;5458;51.496;7.334;2023-02-13T15:31:01;7.07;;;6.03;;
10811;SDS011;5458;51.496;7.334;2023-02-13T15:33:32;12.40;;;6.35;;
10811;SDS011;5458;51.496;7.334;2023-02-13T15:36:15;9.23;;;7.25;;
10811;SDS011;5458;51.496;7.334;2023-02-13T15:38:58;11.70;;;7.25;;
10811;SDS011;5458;51.496;7.334;2023-02-13T15:41:29;7.85;;;6.35;;
10811;SDS011;5458;51.496;7.334;2023-02-13T15:43:58;8.45;;;5.78;;
10811;SDS011;5458;51.496;7.334;2023-02-13T15:46:34;6.82;;;5.63;;
10811;SDS011;5458;51.496;7.334;2023-02-13T15:49:07;7.97;;;5.97;;
10811;SDS011;5458;51.496;7.334;2023-02-13T15:51:37;8.00;;;6.07;;
10811;SDS011;5458;51.496;7.334;2023-02-13T15:54:04;6.90;;;6.00;;
10811;SDS011;5458;51.496;7.334;2023-02-13T15:56:32;7.00;;;6.30;;
10811;SDS011;5458;51.496;7.334;2023-02-13T15:58:59;7.55;;;5.70;;
10811;SDS011;5458;51.496;7.334;2023-02-13T16:01:27;8.27;;;6.28;;
10811;SDS011;5458;51.496;7.334;2023-02-13T16:03:55;7.45;;;5.78;;
10811;SDS011;5458;51.496;7.334;2023-02-13T16:06:27;6.68;;;5.53;;
10811;SDS011;5458;51.496;7.334;2023-02-13T16:08:54;7.32;;;5.63;;
10811;SDS011;5458;51.496;7.334;2023-02-13T16:14:00;6.75;;;5.70;;
10811;SDS011;5458;51.496;7.334;2023-02-13T16:16:28;7.38;;;5.53;;
10811;SDS011;5458;51.496;7.334;2023-02-13T16:18:57;9.77;;;6.63;;
10811;SDS011;5458;51.496;7.334;2023-02-13T16:21:23;7.10;;;5.38;;
10811;SDS011;5458;51.496;7.334;2023-02-13T16:23:52;8.25;;;5.75;;
10811;SDS011;5458;51.496;7.334;2023-02-13T16:26:24;7.35;;;6.13;;
10811;SDS011;5458;51.496;7.334;2023-02-13T16:28:49;7.20;;;5.60;;
10811;SDS011;5458;51.496;7.334;2023-02-13T16:31:15;7.43;;;5.50;;
10811;SDS011;5458;51.496;7.334;2023-02-13T16:33:42;8.55;;;6.10;;
10811;SDS011;5458;51.496;7.334;2023-02-13T16:43:50;10.73;;;6.47;;
10811;SDS011;5458;51.496;7.334;2023-02-13T16:54:28;6.65;;;5.90;;
10811;SDS011;5458;51.496;7.334;2023-02-13T17:01:45;8.95;;;6.50;;
10811;SDS011;5458;51.496;7.334;2023-02-13T17:04:21;7.95;;;6.47;;
10811;SDS011;5458;51.496;7.334;2023-02-13T17:06:53;8.23;;;7.25;;
10811;SDS011;5458;51.496;7.334;2023-02-13T17:09:19;8.85;;;6.28;;
10811;SDS011;5458;51.496;7.334;2023-02-13T17:11:48;10.15;;;7.07;;
10811;SDS011;5458;51.496;7.334;2023-02-13T17:14:18;10.35;;;7.22;;
10811;SDS011;5458;51.496;7.334;2023-02-13T17:16:45;8.32;;;7.40;;
10811;SDS011;5458;51.496;7.334;2023-02-13T17:19:11;10.15;;;7.50;;
10811;SDS011;5458;51.496;7.334;2023-02-13T17:21:37;9.88;;;6.90;;
10811;SDS011;5458;51.496;7.334;2023-02-13T17:24:07;8.30;;;6.80;;
10811;SDS011;5458;51.496;7.334;2023-02-13T17:26:40;10.05;;;7.07;;
10811;SDS011;5458;51.496;7.334;2023-02-13T17:29:06;7.40;;;6.65;;
10811;SDS011;5458;51.496;7.334;2023-02-13T17:31:32;7.75;;;6.95;;
10811;SDS011;5458;51.496;7.334;2023-02-13T17:33:57;9.93;;;6.97;;
10811;SDS011;5458;51.496;7.334;2023-02-13T17:36:23;11.43;;;6.88;;
10811;SDS011;5458;51.496;7.334;2023-02-13T17:38:48;10.57;;;7.28;;
10811;SDS011;5458;51.496;7.334;2023-02-13T17:41:14;7.53;;;6.68;;
10811;SDS011;5458;51.496;7.334;2023-02-13T17:43:40;9.43;;;7.35;;
10811;SDS011;5458;51.496;7.334;2023-02-13T17:46:06;12.88;;;7.85;;
10811;SDS011;5458;51.496;7.334;2023-02-13T17:48:32;10.77;;;8.35;;
10811;SDS011;5458;51.496;7.334;2023-02-13T17:50:58;10.13;;;7.70;;
10811;SDS011;5458;51.496;7.334;2023-02-13T17:53:26;10.32;;;8.80;;
10811;SDS011;5458;51.496;7.334;2023-02-13T17:55:53;11.82;;;10.20;;
10811;SDS011;5458;51.496;7.334;2023-02-13T17:58:20;16.88;;;12.27;;
10811;SDS011;5458;51.496;7.334;2023-02-13T18:00:46;19.23;;;12.90;;
10811;SDS011;5458;51.496;7.334;2023-02-13T18:03:11;18.73;;;13.90;;
10811;SDS011;5458;51.496;7.334;2023-02-13T18:05:37;14.95;;;11.55;;
10811;SDS011;5458;51.496;7.334;2023-02-13T18:08:03;15.40;;;10.85;;
10811;SDS011;5458;51.496;7.334;2023-02-13T18:10:31;12.23;;;10.15;;
10811;SDS011;5458;51.496;7.334;2023-02-13T18:12:58;11.90;;;9.15;;
10811;SDS011;5458;51.496;7.334;2023-02-13T18:15:38;14.50;;;9.50;;
10811;SDS011;5458;51.496;7.334;2023-02-13T18:18:06;13.18;;;8.90;;
10811;SDS011;5458;51.496;7.334;2023-02-13T18:20:32;14.48;;;9.45;;
10811;SDS011;5458;51.496;7.334;2023-02-13T18:22:58;10.90;;;8.98;;
10811;SDS011;5458;51.496;7.334;2023-02-13T18:25:24;10.05;;;8.30;;
10811;SDS011;5458;51.496;7.334;2023-02-13T18:27:49;8.68;;;7.88;;
10811;SDS011;5458;51.496;7.334;2023-02-13T18:30:16;11.48;;;8.05;;